CDT,Max TemperatureF,Mean TemperatureF,Min TemperatureF,Max Dew PointF,MeanDew PointF,Min DewpointF,Max Humidity, Mean Humidity, Min Humidity, Max Sea Level PressureIn, Mean Sea Level PressureIn, Min Sea Level PressureIn, Max VisibilityMiles, Mean VisibilityMiles, Min VisibilityMiles, Max Wind SpeedMPH, Mean Wind SpeedMPH, Max Gust SpeedMPH,PrecipitationIn, CloudCover, Events, WindDirDegrees
2012-10-1,82,71,60,61,56,49,96,67,35,29.93,29.89,29.83,10,7,1,14,4,21,0.00,2,,332
2012-10-2,78,69,60,54,52,49,78,58,39,30.01,29.96,29.91,10,10,10,16,7,22,0.00,1,,340
2012-10-3,82,68,54,56,53,51,90,62,37,30.03,29.99,29.96,10,10,9,10,3,17,0.00,0,,158
2012-10-4,88,78,69,70,66,60,90,74,48,30.12,30.05,30.01,10,9,6,15,9,26,0.00,4,,162
2012-10-5,87,78,70,69,64,59,90,68,40,30.14,30.04,29.95,10,9,5,16,8,21,0.00,2,,186
2012-10-6,70,62,51,63,52,45,83,76,67,30.19,30.09,30.01,10,9,7,16,11,23,0.00,7,,25
2012-10-7,55,50,46,45,39,36,87,66,53,30.28,30.23,30.17,10,9,4,14,11,21,0.00,8,,23
2012-10-8,69,57,46,49,42,37,76,62,45,30.27,30.18,30.08,10,10,10,8,5,,0.00,4,Rain,57
2012-10-9,81,68,57,62,57,49,81,69,54,30.08,30.00,29.90,10,10,8,23,9,31,0.00,5,,190
2012-10-10,84,75,66,70,67,62,100,78,49,30.16,30.08,29.98,10,8,2,12,5,,0.00,6,,177
2012-10-11,84,76,69,71,69,68,94,84,60,30.17,30.10,30.04,10,9,6,13,6,21,0.00,6,Rain,161
2012-10-12,84,76,69,69,67,63,94,80,49,30.21,30.13,30.06,10,9,4,14,8,20,0.00,5,,160
2012-10-13,81,76,71,73,70,68,94,82,67,30.13,30.01,29.87,10,10,6,15,9,24,0.00,7,Rain-Thunderstorm,171
2012-10-14,86,75,64,70,62,49,100,77,29,30.10,30.03,29.90,10,8,0,37,10,62,1.64,4,Fog-Rain-Thunderstorm,254
2012-10-15,78,68,59,55,50,44,78,54,30,30.14,30.07,30.00,10,10,8,7,4,,0.00,0,,66
2012-10-16,71,66,62,66,60,53,94,80,65,29.98,29.86,29.77,10,8,2,14,6,21,0.00,6,Rain,173
2012-10-17,90,78,66,66,60,50,94,63,31,29.81,29.75,29.67,10,7,1,15,11,24,0.00,4,,190
2012-10-18,78,68,57,50,37,26,52,36,16,30.02,29.92,29.77,10,10,10,17,9,26,0.00,0,,41
2012-10-19,79,62,46,42,39,31,80,45,17,30.06,29.99,29.93,10,10,10,6,2,,0.00,0,,158
2012-10-20,84,68,55,69,59,41,82,66,55,29.95,29.87,29.78,10,10,8,18,7,28,0.00,3,,185
2012-10-21,88,80,72,70,67,62,84,71,44,29.96,29.87,29.81,10,9,7,18,14,26,0.00,4,,180
2012-10-22,86,78,71,69,67,62,93,76,44,30.02,29.93,29.88,10,10,8,15,10,24,0.00,4,,164
2012-10-23,80,76,72,68,67,65,87,77,64,30.02,29.95,29.90,10,10,10,10,7,18,0.00,6,,161
2012-10-24,84,75,68,66,64,60,90,73,46,30.03,29.93,29.85,10,10,9,14,8,21,0.00,3,,174
2012-10-25,84,73,61,66,62,46,90,70,46,30.03,29.88,29.81,10,10,9,17,10,30,0.00,6,,171
2012-10-26,60,53,46,44,39,32,86,62,50,30.31,30.19,30.04,10,9,2,15,11,24,0.10,7,Rain-Thunderstorm,360
2012-10-27,61,52,44,31,29,26,56,43,27,30.33,30.24,30.16,10,10,10,13,8,18,0.00,4,,12
2012-10-28,64,52,41,33,28,25,57,42,23,30.30,30.24,30.18,10,10,10,9,4,,0.00,0,,24
2012-10-29,68,52,37,34,31,27,76,46,22,30.32,30.22,30.14,10,10,10,7,3,,0.00,0,,50
2012-10-30,75,60,44,50,43,35,77,58,40,30.13,30.06,29.97,10,10,10,10,2,,0.00,0,,202
2012-10-31,84,66,51,57,50,46,87,65,28,30.09,30.02,29.97,10,10,4,7,1,,0.00,0,,276